createdAt,value
2022-08-07T00:00:54.721Z,2.80
2022-08-07T00:02:59.810Z,2.90
2022-08-07T00:05:08.321Z,2.80
2022-08-07T00:07:13.186Z,2.70
2022-08-07T00:09:22.749Z,3.00
2022-08-07T00:11:29.954Z,2.90
2022-08-07T00:13:40.595Z,2.90
2022-08-07T00:15:51.183Z,2.80
2022-08-07T00:17:56.277Z,2.60
2022-08-07T00:20:03.534Z,2.70
2022-08-07T00:22:08.417Z,2.90
2022-08-07T00:24:16.926Z,2.70
2022-08-07T00:26:48.701Z,2.50
2022-08-07T00:28:56.747Z,2.60
2022-08-07T00:31:04.439Z,2.40
2022-08-07T00:33:11.118Z,2.70
2022-08-07T00:35:17.664Z,2.70
2022-08-07T00:37:22.680Z,2.70
2022-08-07T00:39:27.570Z,2.60
2022-08-07T00:41:45.267Z,2.60
2022-08-07T00:44:00.521Z,2.60
2022-08-07T00:46:07.967Z,2.50
2022-08-07T00:48:13.411Z,2.50
2022-08-07T00:50:33.080Z,2.50
2022-08-07T00:52:47.435Z,2.40
2022-08-07T00:54:53.877Z,2.50
2022-08-07T00:56:59.050Z,2.40
2022-08-07T00:59:05.386Z,2.50
2022-08-07T01:01:10.357Z,2.50
2022-08-07T01:03:15.455Z,2.40
2022-08-07T01:05:24.578Z,2.50
2022-08-07T01:07:30.935Z,2.50
2022-08-07T01:10:06.196Z,2.30
2022-08-07T01:12:09.745Z,2.20
2022-08-07T01:14:28.320Z,2.40
2022-08-07T01:16:34.074Z,2.40
2022-08-07T01:18:40.194Z,2.20
2022-08-07T01:20:57.292Z,2.30
2022-08-07T01:23:12.210Z,2.50
2022-08-07T01:25:54.667Z,2.40
2022-08-07T01:27:51.310Z,2.30
2022-08-07T01:29:56.955Z,2.40
2022-08-07T01:32:05.506Z,2.30
2022-08-07T01:34:11.882Z,2.30
2022-08-07T01:36:19.454Z,2.60
2022-08-07T01:38:40.732Z,2.50
2022-08-07T01:40:58.270Z,2.40
2022-08-07T01:43:03.396Z,2.50
2022-08-07T01:45:17.734Z,2.50
2022-08-07T01:48:18.893Z,2.50
2022-08-07T01:49:53.637Z,2.20
2022-08-07T01:52:04.954Z,2.30
2022-08-07T01:54:33.200Z,2.50
2022-08-07T01:56:49.322Z,2.30
2022-08-07T01:59:03.507Z,2.30
2022-08-07T02:01:25.437Z,2.40
2022-08-07T02:03:50.515Z,2.50
2022-08-07T02:06:02.572Z,2.30
2022-08-07T02:08:27.496Z,2.10
2022-08-07T02:10:34.346Z,2.30
2022-08-07T02:12:43.609Z,2.60
2022-08-07T02:14:58.398Z,2.40
2022-08-07T02:17:24.686Z,2.40
2022-08-07T02:20:04.431Z,2.40
2022-08-07T02:21:58.784Z,2.20
2022-08-07T02:24:05.753Z,2.50
2022-08-07T02:26:32.504Z,2.20
2022-08-07T02:28:39.587Z,2.60
2022-08-07T02:30:48.162Z,2.30
2022-08-07T02:33:00.743Z,2.30
2022-08-07T02:35:15.152Z,2.20
2022-08-07T02:37:27.855Z,2.40
2022-08-07T02:40:02.183Z,2.60
2022-08-07T02:42:10.170Z,2.30
2022-08-07T02:44:24.110Z,2.20
2022-08-07T02:46:34.994Z,2.30
2022-08-07T02:48:47.190Z,2.30
2022-08-07T02:51:05.201Z,2.70
2022-08-07T02:53:15.197Z,2.50
2022-08-07T02:55:28.314Z,2.60
2022-08-07T02:57:51.113Z,2.40
2022-08-07T03:00:01.148Z,2.50
2022-08-07T03:02:09.804Z,2.50
2022-08-07T03:04:19.020Z,2.40
2022-08-07T03:06:25.558Z,2.60
2022-08-07T03:08:31.642Z,2.30
2022-08-07T03:10:46.187Z,2.50
2022-08-07T03:12:52.812Z,2.60
2022-08-07T03:14:58.478Z,2.40
2022-08-07T03:17:08.786Z,2.30
2022-08-07T03:19:14.286Z,2.60
2022-08-07T03:21:19.858Z,2.80
2022-08-07T03:23:33.767Z,2.50
2022-08-07T03:25:58.371Z,2.40
2022-08-07T03:28:09.481Z,2.40
2022-08-07T03:30:33.151Z,2.40
2022-08-07T03:32:49.108Z,2.60
2022-08-07T03:35:17.836Z,2.70
2022-08-07T03:37:27.725Z,2.50
2022-08-07T03:39:46.144Z,2.60
2022-08-07T03:42:03.643Z,2.50
2022-08-07T03:44:09.430Z,2.60
2022-08-07T03:46:18.613Z,2.40
2022-08-07T03:48:26.781Z,2.40
2022-08-07T03:50:36.867Z,2.40
2022-08-07T03:52:42.891Z,2.60
2022-08-07T03:54:54.783Z,2.50
2022-08-07T03:57:07.497Z,2.70
2022-08-07T03:59:13.964Z,2.40
2022-08-07T04:01:23.300Z,2.50
2022-08-07T04:03:28.529Z,2.40
2022-08-07T04:05:53.600Z,2.30
2022-08-07T04:08:04.292Z,2.30
2022-08-07T04:10:15.300Z,2.50
2022-08-07T04:12:27.948Z,2.50
2022-08-07T04:14:37.750Z,2.50
2022-08-07T04:16:58.241Z,2.80
2022-08-07T04:19:12.757Z,2.40
2022-08-07T04:21:21.465Z,2.60
2022-08-07T04:23:43.348Z,2.20
2022-08-07T04:25:54.963Z,2.40
2022-08-07T04:28:02.752Z,2.60
2022-08-07T04:30:21.277Z,2.30
2022-08-07T04:32:40.306Z,2.50
2022-08-07T04:34:50.957Z,2.60
2022-08-07T04:36:56.835Z,2.70
2022-08-07T04:39:02.043Z,2.70
2022-08-07T04:41:07.679Z,2.60
2022-08-07T04:43:17.835Z,2.50
2022-08-07T04:45:57.279Z,2.60
2022-08-07T04:48:04.688Z,2.60
2022-08-07T04:50:25.987Z,2.70
2022-08-07T04:52:56.218Z,2.80
2022-08-07T04:55:14.864Z,2.30
2022-08-07T04:58:12.229Z,2.20
2022-08-07T05:00:30.351Z,2.60
2022-08-07T05:02:44.694Z,2.60
2022-08-07T05:05:12.044Z,2.70
2022-08-07T05:07:48.158Z,2.60
2022-08-07T05:09:59.279Z,2.70
2022-08-07T05:12:10.135Z,2.40
2022-08-07T05:14:52.379Z,2.40
2022-08-07T05:16:53.880Z,2.60
2022-08-07T05:19:03.542Z,2.30
2022-08-07T05:21:14.571Z,2.50
2022-08-07T05:23:30.939Z,2.60
2022-08-07T05:26:11.736Z,2.30
2022-08-07T05:28:20.041Z,2.50
2022-08-07T05:30:32.401Z,2.60
2022-08-07T05:32:40.275Z,2.20
2022-08-07T05:34:47.977Z,2.50
2022-08-07T05:36:55.823Z,2.40
2022-08-07T05:40:06.493Z,2.30
2022-08-07T05:42:00.184Z,2.20
2022-08-07T05:44:12.000Z,2.40
2022-08-07T05:46:19.744Z,2.60
2022-08-07T05:48:31.998Z,2.50
2022-08-07T05:50:42.706Z,2.70
2022-08-07T05:52:51.664Z,2.50
2022-08-07T05:54:58.566Z,2.20
2022-08-07T05:57:06.261Z,2.30
2022-08-07T05:59:21.407Z,2.50
2022-08-07T06:01:35.647Z,2.40
2022-08-07T06:03:53.455Z,2.40
2022-08-07T06:06:02.804Z,2.40
2022-08-07T06:08:30.358Z,2.50
2022-08-07T06:10:35.464Z,2.30
2022-08-07T06:12:41.454Z,2.30
2022-08-07T06:14:49.460Z,2.40
2022-08-07T06:16:57.149Z,2.60
2022-08-07T06:19:09.035Z,2.40
2022-08-07T06:22:15.684Z,2.50
2022-08-07T06:24:37.730Z,2.40
2022-08-07T06:26:16.943Z,2.80
2022-08-07T06:28:27.810Z,2.00
2022-08-07T06:30:37.175Z,2.50
2022-08-07T06:32:55.141Z,2.40
2022-08-07T06:35:01.057Z,2.30
2022-08-07T06:37:06.117Z,2.50
2022-08-07T06:40:13.362Z,2.30
2022-08-07T06:42:01.094Z,2.30
2022-08-07T06:44:31.096Z,2.50
2022-08-07T06:46:41.454Z,2.40
2022-08-07T06:48:48.907Z,2.30
2022-08-07T06:50:59.759Z,2.40
2022-08-07T06:53:49.175Z,2.40
2022-08-07T06:55:53.386Z,2.40
2022-08-07T06:58:04.249Z,2.50
2022-08-07T07:00:18.031Z,2.40
2022-08-07T07:02:27.050Z,2.40
2022-08-07T07:04:55.144Z,2.40
2022-08-07T07:07:02.227Z,2.50
2022-08-07T07:09:20.966Z,2.60
2022-08-07T07:12:09.009Z,2.50
2022-08-07T07:14:01.574Z,2.50
2022-08-07T07:16:13.940Z,2.40
2022-08-07T07:18:47.487Z,2.20
2022-08-07T07:20:56.498Z,2.60
2022-08-07T07:24:08.689Z,2.40
2022-08-07T07:26:33.964Z,2.20
2022-08-07T07:28:02.587Z,2.20
2022-08-07T07:30:12.155Z,2.60
2022-08-07T07:32:18.738Z,2.60
2022-08-07T07:34:30.736Z,2.30
2022-08-07T07:36:40.363Z,2.30
2022-08-07T07:38:47.593Z,2.40
2022-08-07T07:40:57.600Z,2.30
2022-08-07T07:43:15.193Z,2.50
2022-08-07T07:46:38.102Z,2.20
2022-08-07T07:47:54.208Z,2.40
2022-08-07T07:50:35.015Z,2.50
2022-08-07T07:52:28.518Z,2.50
2022-08-07T07:54:35.866Z,2.40
2022-08-07T07:56:41.579Z,2.50
2022-08-07T07:58:48.474Z,2.60
2022-08-07T08:00:56.150Z,2.40
2022-08-07T08:03:08.406Z,2.40
2022-08-07T08:05:16.015Z,2.60
2022-08-07T08:07:22.598Z,2.50
2022-08-07T08:09:52.158Z,2.60
2022-08-07T08:12:09.396Z,2.70
2022-08-07T08:14:21.408Z,2.40
2022-08-07T08:16:38.826Z,3.10
2022-08-07T08:18:45.079Z,2.40
2022-08-07T08:20:55.881Z,2.40
2022-08-07T08:23:03.689Z,2.30
2022-08-07T08:25:24.876Z,2.30
2022-08-07T08:27:44.071Z,2.20
2022-08-07T08:30:06.419Z,2.30
2022-08-07T08:32:18.463Z,2.40
2022-08-07T08:34:29.008Z,2.10
2022-08-07T08:36:36.806Z,2.50
2022-08-07T08:38:46.283Z,2.50
2022-08-07T08:40:58.064Z,2.50
2022-08-07T08:43:10.904Z,2.50
2022-08-07T08:45:26.635Z,2.60
2022-08-07T08:47:56.042Z,2.70
2022-08-07T08:50:15.125Z,2.40
2022-08-07T08:52:29.467Z,2.50
2022-08-07T08:54:45.166Z,2.70
2022-08-07T08:56:53.409Z,2.40
2022-08-07T08:59:08.680Z,2.30
2022-08-07T09:01:29.676Z,2.40
2022-08-07T09:03:57.751Z,2.20
2022-08-07T09:06:11.350Z,2.40
2022-08-07T09:08:31.890Z,2.60
2022-08-07T09:10:46.956Z,2.40
2022-08-07T09:13:09.632Z,2.50
2022-08-07T09:16:24.120Z,2.60
2022-08-07T09:18:22.619Z,2.50
2022-08-07T09:20:35.736Z,2.40
2022-08-07T09:24:35.069Z,2.40
2022-08-07T09:25:25.140Z,2.60
2022-08-07T09:28:00.413Z,2.40
2022-08-07T09:30:10.325Z,2.70
2022-08-07T09:32:26.405Z,2.40
2022-08-07T09:34:45.144Z,2.60
2022-08-07T09:37:04.656Z,2.60
2022-08-07T09:39:54.568Z,2.50
2022-08-07T09:42:04.079Z,2.60
2022-08-07T09:44:46.609Z,2.20
2022-08-07T09:47:51.688Z,2.70
2022-08-07T09:50:02.566Z,2.60
2022-08-07T09:52:34.643Z,2.60
2022-08-07T09:54:45.434Z,2.40
2022-08-07T09:57:32.764Z,2.70
2022-08-07T10:00:02.010Z,2.60
2022-08-07T10:02:34.695Z,2.40
2022-08-07T10:05:01.316Z,2.80
2022-08-07T10:07:52.767Z,2.80
2022-08-07T10:10:21.414Z,2.40
2022-08-07T10:12:52.894Z,2.40
2022-08-07T10:15:19.093Z,2.80
2022-08-07T10:18:02.541Z,2.70
2022-08-07T10:20:22.059Z,2.40
2022-08-07T10:22:51.154Z,2.50
2022-08-07T10:25:09.475Z,2.50
2022-08-07T10:27:46.829Z,2.40
2022-08-07T10:30:06.294Z,2.50
2022-08-07T10:32:37.101Z,2.80
2022-08-07T10:35:14.946Z,2.60
2022-08-07T10:38:00.963Z,2.60
2022-08-07T10:40:09.171Z,2.40
2022-08-07T10:42:31.122Z,2.70
2022-08-07T10:44:50.115Z,2.40
2022-08-07T10:47:00.749Z,2.50
2022-08-07T10:49:14.588Z,2.70
2022-08-07T10:51:57.182Z,2.50
2022-08-07T10:54:04.339Z,2.10
2022-08-07T10:56:31.125Z,2.30
2022-08-07T10:59:01.172Z,2.50
2022-08-07T11:01:23.726Z,2.50
2022-08-07T11:03:47.889Z,2.50
2022-08-07T11:06:08.647Z,2.60
2022-08-07T11:08:30.159Z,2.40
2022-08-07T11:10:43.520Z,2.50
2022-08-07T11:13:02.104Z,2.40
2022-08-07T11:15:17.287Z,2.50
2022-08-07T11:17:43.310Z,2.30
2022-08-07T11:19:55.764Z,2.40
2022-08-07T11:22:19.195Z,2.20
2022-08-07T11:24:45.420Z,2.30
2022-08-07T11:27:00.308Z,2.30
2022-08-07T11:29:13.352Z,2.40
2022-08-07T11:31:41.802Z,2.30
2022-08-07T11:33:59.948Z,2.20
2022-08-07T11:36:20.473Z,2.30
2022-08-07T11:38:40.592Z,2.00
2022-08-07T11:40:56.197Z,2.20
2022-08-07T11:43:08.358Z,2.00
2022-08-07T11:45:29.936Z,2.30
2022-08-07T11:47:59.507Z,2.50
2022-08-07T11:50:32.437Z,2.40
2022-08-07T11:52:49.992Z,2.10
2022-08-07T11:55:18.915Z,2.30
2022-08-07T11:57:59.443Z,2.40
2022-08-07T12:00:18.958Z,1.90
2022-08-07T12:02:52.752Z,2.10
2022-08-07T12:05:15.378Z,2.10
2022-08-07T12:07:39.089Z,2.20
2022-08-07T12:09:54.093Z,2.10
2022-08-07T12:12:10.576Z,2.30
2022-08-07T12:14:20.287Z,2.20
2022-08-07T12:16:30.580Z,2.10
2022-08-07T12:18:45.534Z,2.00
2022-08-07T12:21:05.882Z,2.10
2022-08-07T12:24:05.711Z,1.90
2022-08-07T12:26:06.070Z,1.90
2022-08-07T12:28:31.078Z,2.00
2022-08-07T12:30:40.702Z,1.90
2022-08-07T12:32:58.614Z,2.30
2022-08-07T12:35:08.487Z,2.40
2022-08-07T12:37:16.856Z,2.10
2022-08-07T12:39:42.263Z,2.00
2022-08-07T12:41:52.080Z,2.30
2022-08-07T12:44:03.674Z,2.20
2022-08-07T12:46:26.653Z,2.10
2022-08-07T12:48:53.290Z,2.10
2022-08-07T12:51:17.067Z,2.30
2022-08-07T12:54:02.861Z,2.50
2022-08-07T12:56:09.673Z,2.30
2022-08-07T12:58:22.489Z,2.30
2022-08-07T13:00:50.107Z,2.50
2022-08-07T13:03:13.130Z,2.20
2022-08-07T13:06:03.112Z,2.50
2022-08-07T13:08:29.336Z,2.70
2022-08-07T13:10:52.052Z,2.50
2022-08-07T13:13:10.945Z,2.40
2022-08-07T13:15:29.522Z,2.60
2022-08-07T13:17:44.351Z,2.50
2022-08-07T13:19:54.610Z,2.60
2022-08-07T13:22:12.753Z,2.40
2022-08-07T13:24:52.452Z,2.50
2022-08-07T13:27:05.762Z,2.70
2022-08-07T13:29:15.301Z,2.90
2022-08-07T13:31:26.177Z,2.60
2022-08-07T13:34:34.221Z,2.70
2022-08-07T13:36:19.466Z,2.60
2022-08-07T13:38:31.415Z,2.60
2022-08-07T13:40:43.245Z,2.80
2022-08-07T13:42:51.305Z,2.50
2022-08-07T13:46:06.167Z,2.70
2022-08-07T13:48:05.826Z,2.70
2022-08-07T13:50:33.009Z,2.50
2022-08-07T13:52:33.573Z,2.50
2022-08-07T13:54:49.255Z,2.50
2022-08-07T13:56:59.863Z,2.60
2022-08-07T13:59:12.224Z,2.70
2022-08-07T14:01:20.374Z,2.60
2022-08-07T14:04:07.730Z,2.60
2022-08-07T14:05:57.369Z,2.50
2022-08-07T14:08:04.848Z,2.70
2022-08-07T14:10:21.651Z,2.60
2022-08-07T14:12:42.025Z,2.40
2022-08-07T14:15:00.495Z,2.70
2022-08-07T14:17:12.980Z,2.30
2022-08-07T14:20:42.032Z,2.50
2022-08-07T14:22:11.636Z,2.70
2022-08-07T14:24:28.030Z,2.60
2022-08-07T14:26:40.597Z,2.60
2022-08-07T14:29:01.175Z,2.70
2022-08-07T14:31:13.849Z,2.60
2022-08-07T14:33:23.789Z,2.40
2022-08-07T14:35:43.216Z,2.50
2022-08-07T14:38:05.602Z,2.50
2022-08-07T14:40:26.747Z,2.30
2022-08-07T14:42:35.337Z,2.70
2022-08-07T14:45:21.598Z,2.40
2022-08-07T14:47:31.474Z,2.50
2022-08-07T14:49:58.163Z,2.20
2022-08-07T14:52:10.268Z,2.40
2022-08-07T14:54:31.346Z,2.60
2022-08-07T14:56:43.430Z,2.60
2022-08-07T14:58:55.061Z,2.50
2022-08-07T15:01:19.560Z,2.40
2022-08-07T15:03:51.411Z,3.00
2022-08-07T15:06:03.922Z,2.60
2022-08-07T15:08:12.442Z,2.40
2022-08-07T15:10:26.132Z,2.70
2022-08-07T15:12:35.957Z,2.60
2022-08-07T15:17:16.901Z,2.50
2022-08-07T15:22:03.953Z,2.50
2022-08-07T15:25:15.511Z,2.80
2022-08-07T15:26:43.857Z,2.70
2022-08-07T15:28:59.467Z,2.80
2022-08-07T15:32:01.675Z,2.80
2022-08-07T15:33:57.032Z,3.30
2022-08-07T15:38:51.286Z,2.90
2022-08-07T15:41:00.341Z,3.10
2022-08-07T15:43:53.315Z,3.20
2022-08-07T15:45:57.507Z,4.00
2022-08-07T15:48:20.252Z,2.90
2022-08-07T15:51:01.261Z,3.20
2022-08-07T15:52:58.434Z,2.90
2022-08-07T15:55:12.153Z,2.70
2022-08-07T15:57:39.761Z,3.10
2022-08-07T15:59:50.227Z,3.00
2022-08-07T16:02:02.167Z,3.30
2022-08-07T16:04:15.603Z,3.00
2022-08-07T16:06:28.301Z,2.90
2022-08-07T16:08:40.776Z,3.00
2022-08-07T16:10:52.372Z,2.90
2022-08-07T16:13:39.381Z,2.70
2022-08-07T16:16:42.772Z,3.10
2022-08-07T16:18:50.726Z,3.20
2022-08-07T16:21:44.145Z,3.30
2022-08-07T16:23:53.572Z,3.30
2022-08-07T16:26:08.157Z,3.10
2022-08-07T16:30:08.642Z,3.00
2022-08-07T16:31:00.264Z,3.50
2022-08-07T16:34:02.072Z,3.40
2022-08-07T16:35:59.468Z,3.20
2022-08-07T16:38:59.902Z,3.20
2022-08-07T16:41:41.786Z,3.20
2022-08-07T16:45:04.096Z,3.20
2022-08-07T16:47:31.412Z,3.30
2022-08-07T16:50:20.674Z,3.40
2022-08-07T16:52:55.995Z,3.50
2022-08-07T16:55:14.892Z,3.30
2022-08-07T16:58:02.345Z,3.50
2022-08-07T17:00:10.941Z,3.10
2022-08-07T17:02:53.486Z,3.50
2022-08-07T17:06:01.476Z,3.60
2022-08-07T17:07:55.841Z,3.50
2022-08-07T17:10:09.187Z,3.50
2022-08-07T17:12:44.370Z,3.60
2022-08-07T17:14:56.308Z,3.30
2022-08-07T17:17:08.470Z,3.40
2022-08-07T17:20:00.972Z,3.40
2022-08-07T17:21:59.001Z,3.70
2022-08-07T17:24:38.639Z,3.70
2022-08-07T17:26:51.895Z,3.60
2022-08-07T17:29:07.060Z,3.70
2022-08-07T17:31:17.902Z,3.80
2022-08-07T17:33:39.098Z,3.90
2022-08-07T17:36:02.881Z,3.80
2022-08-07T17:38:33.898Z,4.10
2022-08-07T17:40:50.502Z,4.10
2022-08-07T17:43:02.578Z,4.30
2022-08-07T17:45:24.273Z,3.90
2022-08-07T17:47:42.375Z,3.80
2022-08-07T17:49:54.462Z,4.10
2022-08-07T17:52:10.624Z,4.20
2022-08-07T17:54:29.615Z,4.70
2022-08-07T17:56:52.541Z,4.10
2022-08-07T17:59:17.161Z,4.10
2022-08-07T18:01:34.819Z,4.10
2022-08-07T18:04:03.721Z,4.70
2022-08-07T18:06:36.622Z,4.50
2022-08-07T18:09:01.885Z,5.00
2022-08-07T18:12:17.652Z,4.50
2022-08-07T18:13:49.777Z,4.60
2022-08-07T18:16:09.939Z,4.70
2022-08-07T18:18:47.501Z,4.90
2022-08-07T18:21:12.801Z,5.50
2022-08-07T18:23:43.704Z,5.00
2022-08-07T18:26:03.561Z,5.10
2022-08-07T18:28:35.566Z,4.80
2022-08-07T18:30:58.471Z,5.80
2022-08-07T18:33:55.626Z,6.30
2022-08-07T18:36:14.668Z,5.20
2022-08-07T18:38:55.109Z,4.70
2022-08-07T18:41:09.280Z,5.10
2022-08-07T18:43:36.701Z,5.40
2022-08-07T18:46:25.858Z,5.20
2022-08-07T18:50:04.838Z,5.70
2022-08-07T18:51:05.758Z,5.70
2022-08-07T18:53:22.003Z,5.70
2022-08-07T18:55:56.253Z,5.70
2022-08-07T18:58:33.605Z,6.30
2022-08-07T19:00:54.190Z,5.80
2022-08-07T19:03:12.041Z,6.80
2022-08-07T19:06:02.065Z,6.50
2022-08-07T19:07:59.664Z,6.90
2022-08-07T19:10:21.471Z,6.20
2022-08-07T19:12:34.599Z,6.20
2022-08-07T19:14:51.188Z,6.60
2022-08-07T19:17:08.547Z,6.20
2022-08-07T19:19:32.040Z,6.50
2022-08-07T19:21:53.630Z,6.90
2022-08-07T19:24:09.535Z,6.50
2022-08-07T19:26:22.809Z,6.00
2022-08-07T19:30:55.224Z,6.70
2022-08-07T19:31:41.752Z,6.70
2022-08-07T19:33:43.342Z,7.00
2022-08-07T19:36:03.079Z,7.60
2022-08-07T19:38:16.815Z,8.20
2022-08-07T19:40:31.238Z,8.10
2022-08-07T19:42:42.882Z,8.10
2022-08-07T19:44:49.473Z,8.40
2022-08-07T19:47:05.466Z,8.40
2022-08-07T19:49:16.598Z,6.80
2022-08-07T19:51:51.295Z,7.40
2022-08-07T19:54:33.256Z,6.60
2022-08-07T19:58:01.451Z,6.60
2022-08-07T19:58:52.825Z,6.30
2022-08-07T20:00:59.722Z,6.00
2022-08-07T20:03:33.636Z,5.20
2022-08-07T20:06:00.662Z,5.00
2022-08-07T20:08:09.213Z,5.40
2022-08-07T20:10:35.352Z,5.50
2022-08-07T20:12:43.256Z,4.90
2022-08-07T20:14:58.649Z,4.60
2022-08-07T20:17:07.944Z,4.80
2022-08-07T20:19:13.834Z,4.40
2022-08-07T20:21:22.101Z,4.50
2022-08-07T20:23:40.668Z,4.50
2022-08-07T20:25:51.074Z,4.00
2022-08-07T20:28:05.763Z,4.60
2022-08-07T20:30:12.929Z,4.30
2022-08-07T20:32:39.707Z,4.50
2022-08-07T20:34:51.181Z,4.40
2022-08-07T20:36:59.156Z,4.10
2022-08-07T20:39:11.630Z,4.30
2022-08-07T20:41:37.969Z,3.80
2022-08-07T20:43:47.787Z,4.20
2022-08-07T20:46:28.240Z,4.00
2022-08-07T20:48:28.295Z,4.50
2022-08-07T20:50:35.600Z,4.00
2022-08-07T20:52:51.159Z,4.10
2022-08-07T20:54:58.005Z,4.00
2022-08-07T20:57:08.180Z,3.90
2022-08-07T21:00:04.879Z,3.90
2022-08-07T21:01:54.897Z,4.00
2022-08-07T21:04:22.192Z,4.00
2022-08-07T21:06:31.409Z,4.10
2022-08-07T21:08:40.725Z,4.20
2022-08-07T21:10:49.127Z,3.70
2022-08-07T21:12:57.859Z,3.90
2022-08-07T21:15:08.249Z,4.10
2022-08-07T21:18:03.309Z,3.90
2022-08-07T21:19:51.323Z,4.10
2022-08-07T21:22:07.876Z,4.00
2022-08-07T21:24:18.658Z,3.90
2022-08-07T21:26:34.786Z,4.20
2022-08-07T21:28:51.131Z,3.70
2022-08-07T21:31:12.401Z,3.90
2022-08-07T21:33:22.053Z,3.70
2022-08-07T21:35:34.513Z,4.10
2022-08-07T21:38:08.343Z,4.00
2022-08-07T21:40:20.469Z,4.20
2022-08-07T21:42:42.802Z,3.90
2022-08-07T21:44:57.538Z,4.50
2022-08-07T21:47:12.371Z,4.00
2022-08-07T21:49:27.063Z,3.80
2022-08-07T21:51:54.538Z,4.10
2022-08-07T21:54:18.826Z,4.00
2022-08-07T21:56:47.844Z,3.60
2022-08-07T21:59:03.705Z,4.00
2022-08-07T22:01:28.686Z,3.90
2022-08-07T22:03:57.509Z,4.20
2022-08-07T22:06:29.998Z,3.90
2022-08-07T22:08:37.733Z,3.70
2022-08-07T22:10:47.981Z,4.10
2022-08-07T22:12:57.260Z,4.00
2022-08-07T22:16:43.937Z,3.70
2022-08-07T22:17:44.183Z,4.00
2022-08-07T22:20:23.550Z,3.60
2022-08-07T22:22:36.762Z,3.60
2022-08-07T22:25:02.911Z,3.20
2022-08-07T22:27:16.171Z,3.40
2022-08-07T22:29:37.823Z,3.60
2022-08-07T22:32:03.453Z,3.40
2022-08-07T22:34:17.513Z,3.60
2022-08-07T22:36:42.303Z,3.40
2022-08-07T22:38:55.301Z,3.30
2022-08-07T22:41:03.238Z,3.60
2022-08-07T22:43:16.997Z,3.40
2022-08-07T22:46:21.655Z,3.40
2022-08-07T22:48:13.971Z,3.10
2022-08-07T22:50:46.114Z,3.70
2022-08-07T22:53:15.254Z,4.00
2022-08-07T22:55:51.647Z,4.30
2022-08-07T22:58:10.530Z,4.60
2022-08-07T23:00:21.451Z,4.40
2022-08-07T23:02:42.218Z,4.00
2022-08-07T23:06:07.352Z,3.80
2022-08-07T23:07:42.191Z,5.40
2022-08-07T23:10:34.182Z,4.20
2022-08-07T23:12:39.476Z,4.80
2022-08-07T23:15:00.036Z,4.90
2022-08-07T23:17:22.585Z,4.40
2022-08-07T23:19:51.498Z,4.30
2022-08-07T23:22:03.319Z,5.40
2022-08-07T23:24:27.954Z,4.50
2022-08-07T23:26:50.175Z,4.50
2022-08-07T23:29:43.918Z,4.50
2022-08-07T23:34:20.124Z,4.10
2022-08-07T23:34:44.932Z,4.40
2022-08-07T23:37:20.257Z,4.20
2022-08-07T23:39:41.246Z,5.10
2022-08-07T23:42:04.314Z,4.20
2022-08-07T23:44:57.579Z,4.20
2022-08-07T23:47:19.924Z,4.70
2022-08-07T23:49:58.907Z,4.60
2022-08-07T23:53:05.300Z,5.20
2022-08-07T23:54:52.060Z,5.10
2022-08-07T23:57:09.084Z,4.70
